createdAt,value
2022-11-23T00:04:44.550Z,98554.06
2022-11-23T00:09:45.720Z,98556.06
2022-11-23T00:14:46.841Z,98556.22
2022-11-23T00:19:48.118Z,98560.06
2022-11-23T00:24:49.304Z,98558.19
2022-11-23T00:29:50.467Z,98568.78
2022-11-23T00:34:51.651Z,98575.25
2022-11-23T00:39:52.886Z,98574.94
2022-11-23T00:44:54.011Z,98584.75
2022-11-23T00:49:55.282Z,98585.25
2022-11-23T00:54:56.425Z,98573.22
2022-11-23T00:59:57.597Z,98579.53
2022-11-23T01:04:58.746Z,98573.53
2022-11-23T01:09:59.950Z,98577.06
2022-11-23T01:15:01.126Z,98575.69
2022-11-23T01:20:02.281Z,98580.91
2022-11-23T01:25:03.459Z,98584.28
2022-11-23T01:30:04.615Z,98596.59
2022-11-23T01:35:05.770Z,98592.91
2022-11-23T01:40:06.947Z,98609.81
2022-11-23T01:45:08.110Z,98611.81
2022-11-23T01:50:09.283Z,98610.41
2022-11-23T01:55:10.442Z,98611.94
2022-11-23T02:00:13.354Z,98613.50
2022-11-23T02:05:14.527Z,98615.78
2022-11-23T02:10:15.722Z,98609.78
2022-11-23T02:15:16.864Z,98615.00
2022-11-23T02:20:18.017Z,98622.53
2022-11-23T02:25:19.242Z,98623.28
2022-11-23T02:30:20.421Z,98626.69
2022-11-23T02:35:21.571Z,98629.31
2022-11-23T02:40:22.724Z,98629.19
2022-11-23T02:45:23.946Z,98634.25
2022-11-23T02:50:25.090Z,98634.09
2022-11-23T02:55:26.334Z,98634.09
2022-11-23T03:00:27.586Z,98633.34
2022-11-23T03:05:28.816Z,98635.19
2022-11-23T03:10:29.956Z,98636.72
2022-11-23T03:15:32.385Z,98635.63
2022-11-23T03:20:33.537Z,98634.88
2022-11-23T03:25:34.699Z,98637.50
2022-11-23T03:30:35.871Z,98637.81
2022-11-23T03:35:37.993Z,98638.25
2022-11-23T03:40:39.167Z,98635.63
2022-11-23T03:45:40.322Z,98638.72
2022-11-23T03:50:41.499Z,98642.41
2022-11-23T03:55:42.699Z,98638.13
2022-11-23T04:00:43.929Z,98644.72
2022-11-23T04:05:45.205Z,98649.50
2022-11-23T04:10:46.363Z,98638.28
2022-11-23T04:15:47.585Z,98646.72
2022-11-23T04:20:48.886Z,98640.44
2022-11-23T04:25:50.054Z,98640.13
2022-11-23T04:30:51.245Z,98641.66
2022-11-23T04:35:52.596Z,98640.59
2022-11-23T04:40:53.741Z,98636.88
2022-11-23T04:45:54.930Z,98636.88
2022-11-23T04:50:56.107Z,98648.56
2022-11-23T04:55:57.278Z,98649.31
2022-11-23T05:00:58.585Z,98659.78
2022-11-23T05:05:59.831Z,98657.16
2022-11-23T05:11:01.013Z,98663.50
2022-11-23T05:16:02.170Z,98656.25
2022-11-23T05:21:03.337Z,98667.19
2022-11-23T05:26:04.518Z,98667.34
2022-11-23T05:31:05.667Z,98674.25
2022-11-23T05:36:06.905Z,98678.28
2022-11-23T05:41:08.097Z,98686.72
2022-11-23T05:46:09.279Z,98689.63
2022-11-23T05:51:10.491Z,98688.44
2022-11-23T05:56:11.654Z,98685.63
2022-11-23T06:01:12.996Z,98686.44
2022-11-23T06:06:14.156Z,98682.56
2022-11-23T06:11:15.329Z,98684.72
2022-11-23T06:16:16.534Z,98677.81
2022-11-23T06:21:17.710Z,98683.03
2022-11-23T06:26:18.898Z,98673.19
2022-11-23T06:31:20.067Z,98677.97
2022-11-23T06:36:21.242Z,98681.97
2022-11-23T06:41:22.442Z,98681.81
2022-11-23T06:46:23.611Z,98681.19
2022-11-23T06:51:24.740Z,98687.94
2022-11-23T06:56:25.908Z,98681.66
2022-11-23T07:01:27.161Z,98687.19
2022-11-23T07:06:28.407Z,98696.41
2022-11-23T07:11:29.589Z,98694.09
2022-11-23T07:16:30.788Z,98698.53
2022-11-23T07:21:31.976Z,98704.38
2022-11-23T07:26:33.207Z,98705.94
2022-11-23T07:31:34.358Z,98718.19
2022-11-23T07:36:35.603Z,98720.66
2022-11-23T07:41:36.759Z,98723.84
2022-11-23T07:46:37.913Z,98733.97
2022-11-23T07:51:39.103Z,98742.88
2022-11-23T07:56:40.252Z,98745.81
2022-11-23T08:01:41.485Z,98744.00
2022-11-23T08:06:42.686Z,98751.06
2022-11-23T08:11:43.902Z,98757.78
2022-11-23T08:16:45.111Z,98760.09
2022-11-23T08:21:46.397Z,98759.16
2022-11-23T08:26:47.521Z,98763.75
2022-11-23T08:31:48.735Z,98756.41
2022-11-23T08:36:49.895Z,98758.41
2022-11-23T08:41:51.043Z,98764.88
2022-11-23T08:46:52.169Z,98770.28
2022-11-23T08:51:54.396Z,98769.84
2022-11-23T08:56:55.610Z,98772.03
2022-11-23T09:01:56.877Z,98779.59
2022-11-23T09:06:58.060Z,98774.06
2022-11-23T09:11:59.273Z,98774.66
2022-11-23T09:17:00.441Z,98769.88
2022-11-23T09:22:01.695Z,98780.78
2022-11-23T09:27:02.858Z,98769.19
2022-11-23T09:32:03.995Z,98716.66
2022-11-23T09:37:05.169Z,98791.03
2022-11-23T09:42:06.429Z,98783.81
2022-11-23T09:47:07.626Z,98794.72
2022-11-23T09:52:08.743Z,98798.06
2022-11-23T09:57:09.913Z,98803.41
2022-11-23T10:02:11.048Z,98784.97
2022-11-23T10:07:12.790Z,98784.28
2022-11-23T10:12:13.959Z,98780.25
2022-11-23T10:17:15.137Z,98773.38
2022-11-23T10:22:16.357Z,98775.75
2022-11-23T10:27:17.561Z,98776.88
2022-11-23T10:32:18.757Z,98772.00
2022-11-23T10:37:19.965Z,98768.31
2022-11-23T10:42:21.209Z,98759.28
2022-11-23T10:47:22.364Z,98749.28
2022-11-23T10:52:23.518Z,98735.91
2022-11-23T10:57:24.702Z,98731.63
2022-11-23T11:02:25.917Z,98727.22
2022-11-23T11:07:27.198Z,98714.53
2022-11-23T11:12:28.482Z,98691.72
2022-11-23T11:17:29.656Z,98674.69
2022-11-23T11:22:30.937Z,98674.69
2022-11-23T11:27:32.643Z,98664.53
2022-11-23T11:32:33.781Z,98667.50
2022-11-23T11:37:34.910Z,98665.34
2022-11-23T11:42:36.043Z,98660.13
2022-11-23T11:47:37.251Z,98663.06
2022-11-23T11:52:38.462Z,98668.19
2022-11-23T11:57:39.635Z,98662.94
2022-11-23T12:02:40.875Z,98659.84
2022-11-23T12:07:42.116Z,98663.91
2022-11-23T12:12:43.354Z,98659.19
2022-11-23T12:17:44.525Z,98655.81
2022-11-23T12:22:45.814Z,98653.19
2022-11-23T12:27:49.068Z,98655.09
2022-11-23T12:32:50.595Z,98653.84
2022-11-23T12:37:51.761Z,98642.69
2022-11-23T12:42:52.965Z,98641.94
2022-11-23T12:47:54.159Z,98642.16
2022-11-23T12:52:55.434Z,98638.09
2022-11-23T12:57:56.680Z,98627.25
2022-11-23T13:02:58.224Z,98621.00
2022-11-23T13:07:59.468Z,98611.72
2022-11-23T13:13:00.730Z,98593.69
2022-11-23T13:18:02.034Z,98599.03
2022-11-23T13:23:04.902Z,98584.16
2022-11-23T13:28:06.065Z,98584.63
2022-11-23T13:33:07.203Z,98589.00
2022-11-23T13:38:08.429Z,98582.31
2022-11-23T13:43:09.658Z,98575.22
2022-11-23T13:48:19.299Z,98575.75
2022-11-23T13:53:24.721Z,98584.59
2022-11-23T13:58:26.272Z,98572.09
2022-11-23T14:03:27.472Z,98566.59
2022-11-23T14:08:28.655Z,98569.19
2022-11-23T14:13:30.181Z,98554.06
2022-11-23T14:18:31.410Z,98560.78
2022-11-23T14:23:32.790Z,98558.75
2022-11-23T14:28:33.929Z,98558.72
2022-11-23T14:33:35.097Z,98564.97
2022-11-23T14:38:36.254Z,98565.34
2022-11-23T14:43:40.421Z,98563.56
2022-11-23T14:48:44.407Z,98570.22
2022-11-23T14:53:47.368Z,98568.84
2022-11-23T14:58:48.819Z,98569.97
2022-11-23T15:03:51.060Z,98590.28
2022-11-23T15:08:52.382Z,98603.19
2022-11-23T15:13:54.956Z,98614.28
2022-11-23T15:18:57.073Z,98614.84
2022-11-23T15:23:58.337Z,98636.53
2022-11-23T15:28:59.486Z,98641.22
2022-11-23T15:34:00.766Z,98653.28
2022-11-23T15:39:01.899Z,98652.44
2022-11-23T15:44:03.109Z,98670.94
2022-11-23T15:49:04.297Z,98677.91
2022-11-23T15:54:05.517Z,98687.13
2022-11-23T15:59:06.689Z,98708.97
2022-11-23T16:04:08.221Z,98710.09
2022-11-23T16:09:35.098Z,98731.47
2022-11-23T16:14:32.129Z,98751.75
2022-11-23T16:19:33.756Z,98749.28
2022-11-23T16:24:35.814Z,98760.81
2022-11-23T16:29:37.358Z,98766.47
2022-11-23T16:34:38.535Z,98769.59
2022-11-23T16:39:39.706Z,98781.84
2022-11-23T16:44:42.108Z,98790.78
2022-11-23T16:49:43.495Z,98792.91
2022-11-23T16:54:45.208Z,98794.31
2022-11-23T16:59:46.497Z,98813.19
2022-11-23T17:04:47.763Z,98821.19
2022-11-23T17:09:48.992Z,98827.00
2022-11-23T17:14:50.179Z,98824.22
2022-11-23T17:19:51.466Z,98824.38
2022-11-23T17:24:54.402Z,98816.38
2022-11-23T17:29:55.534Z,98838.63
2022-11-23T17:34:58.335Z,98854.28
2022-11-23T17:39:59.455Z,98852.78
2022-11-23T17:45:00.667Z,98856.59
2022-11-23T17:50:03.097Z,98864.94
2022-11-23T17:55:04.558Z,98866.47
2022-11-23T18:00:06.531Z,98875.84
2022-11-23T18:05:07.690Z,98884.44
2022-11-23T18:10:08.975Z,98883.22
2022-11-23T18:15:10.231Z,98894.25
2022-11-23T18:20:11.616Z,98898.53
2022-11-23T18:25:12.738Z,98904.34
2022-11-23T18:30:13.886Z,98917.41
2022-11-23T18:35:15.156Z,98919.25
2022-11-23T18:40:16.318Z,98915.88
2022-11-23T18:45:18.015Z,98921.09
2022-11-23T18:50:19.317Z,98929.41
2022-11-23T18:55:20.507Z,98942.75
2022-11-23T19:00:21.849Z,98953.19
2022-11-23T19:05:23.054Z,98953.97
2022-11-23T19:10:24.270Z,98965.50
2022-11-23T19:15:25.638Z,98962.13
2022-11-23T19:20:27.059Z,98985.53
2022-11-23T19:25:29.644Z,98994.47
2022-11-23T19:30:30.849Z,98990.59
2022-11-23T19:35:32.086Z,99001.16
2022-11-23T19:40:33.324Z,99008.22
2022-11-23T19:45:34.512Z,99014.63
2022-11-23T19:50:35.678Z,99012.53
2022-11-23T19:55:36.894Z,99033.56
2022-11-23T20:00:39.739Z,99036.59
2022-11-23T20:05:40.975Z,99049.75
2022-11-23T20:10:42.177Z,99050.06
2022-11-23T20:15:48.348Z,99054.00
2022-11-23T20:20:49.776Z,99075.06
2022-11-23T20:25:50.929Z,99073.09
2022-11-23T20:30:52.125Z,99073.50
2022-11-23T20:35:53.338Z,99077.50
2022-11-23T20:40:54.504Z,99086.66
2022-11-23T20:45:55.667Z,99092.72
2022-11-23T20:50:57.110Z,99110.47
2022-11-23T20:55:58.241Z,99105.06
2022-11-23T21:00:59.388Z,99101.00
2022-11-23T21:06:00.560Z,99106.00
2022-11-23T21:11:20.636Z,99109.69
2022-11-23T21:16:21.920Z,99118.06
2022-11-23T21:21:23.170Z,99127.47
2022-11-23T21:26:24.485Z,99130.69
2022-11-23T21:31:25.745Z,99133.56
2022-11-23T21:36:27.034Z,99141.66
2022-11-23T21:41:28.241Z,99153.88
2022-11-23T21:46:29.532Z,99144.47
2022-11-23T21:51:30.754Z,99153.72
2022-11-23T21:56:31.984Z,99164.47
2022-11-23T22:01:33.124Z,99173.25
2022-11-23T22:06:34.275Z,99180.50
2022-11-23T22:11:35.429Z,99184.13
2022-11-23T22:16:36.648Z,99194.06
2022-11-23T22:21:37.872Z,99201.75
2022-11-23T22:26:39.017Z,99208.78
2022-11-23T22:31:40.331Z,99219.97
2022-11-23T22:36:41.557Z,99215.97
2022-11-23T22:41:42.764Z,99220.69
2022-11-23T22:46:43.913Z,99227.31
2022-11-23T22:51:45.124Z,99233.94
2022-11-23T22:56:46.250Z,99240.34
2022-11-23T23:01:47.372Z,99246.94
2022-11-23T23:06:50.653Z,99250.69
2022-11-23T23:11:51.829Z,99264.47
2022-11-23T23:16:52.998Z,99266.31
2022-11-23T23:21:54.212Z,99269.97
2022-11-23T23:26:55.609Z,99278.72
2022-11-23T23:31:56.793Z,99276.09
2022-11-23T23:36:57.989Z,99284.72
2022-11-23T23:41:59.136Z,99288.50
2022-11-23T23:47:00.291Z,99288.03
2022-11-23T23:52:01.450Z,99299.78
2022-11-23T23:57:02.659Z,99304.59
